Time;durP1;ratioP1;P1;durP2;ratioP2;P2;SDS_P1;SDS_P2;PMS_P1;PMS_P2;Temp;Humidity;BMP_temperature;BMP_pressure;BME280_temperature;BME280_humidity;BME280_pressure;Samples;Min_cycle;Max_cycle;Signal;HPM_P1;HPM_P2
2023/11/07 00:00:19;;;;;;;1.80;0.87;;;;;;;-145.69;60.91;52264.16;5119071;28;20579;-82
2023/11/07 00:02:51;;;;;;;2.13;0.73;;;;;;;-145.69;61.61;52238.44;5125498;28;20193;-82
2023/11/07 00:05:18;;;;;;;0.97;0.60;;;;;;;-145.69;62.29;52282.00;5124416;28;20296;-83
2023/11/07 00:07:46;;;;;;;3.00;0.60;;;;;;;-145.69;61.88;52274.06;5131265;28;20190;-82
2023/11/07 00:10:15;;;;;;;2.23;0.80;;;;;;;-145.69;61.94;52282.00;5125038;28;20258;-82
2023/11/07 00:12:45;;;;;;;6.57;0.60;;;;;;;-145.69;62.39;52270.13;5134360;28;20197;-82
2023/11/07 00:15:15;;;;;;;8.47;0.90;;;;;;;-145.69;62.89;52282.00;5122565;28;20270;-82
2023/11/07 00:17:45;;;;;;;2.20;0.60;;;;;;;-145.69;62.46;52258.22;5118868;28;20255;-82
2023/11/07 00:20:12;;;;;;;1.30;0.70;;;;;;;-145.69;61.99;52297.84;5124664;28;20290;-82
2023/11/07 00:22:39;;;;;;;1.10;0.70;;;;;;;-145.69;61.72;52274.06;5125518;28;20201;-82
2023/11/07 00:25:06;;;;;;;1.07;0.67;;;;;;;-145.69;62.59;52260.22;5126681;28;20705;-81
2023/11/07 00:27:33;;;;;;;0.67;0.50;;;;;;;-145.69;62.31;52291.91;5124299;28;20280;-82
2023/11/07 00:30:00;;;;;;;0.97;0.67;;;;;;;-145.69;62.38;52274.06;5118848;28;20667;-82
2023/11/07 00:32:26;;;;;;;1.60;0.70;;;;;;;-145.69;62.78;52268.13;5130334;28;20212;-82
2023/11/07 00:34:54;;;;;;;2.60;0.60;;;;;;;-145.69;62.97;52291.91;5133381;28;20194;-82
2023/11/07 00:37:21;;;;;;;1.83;0.57;;;;;;;-145.69;63.70;52309.72;5123424;28;20442;-82
2023/11/07 00:39:47;;;;;;;0.70;0.70;;;;;;;-145.69;63.49;52321.59;5123125;28;20236;-82
2023/11/07 00:42:14;;;;;;;1.40;0.60;;;;;;;-145.69;63.48;52311.69;5120111;28;20663;-82
2023/11/07 00:44:41;;;;;;;6.30;1.77;;;;;;;-145.69;63.62;52289.91;5117978;28;20196;-82
2023/11/07 00:47:08;;;;;;;0.50;0.50;;;;;;;-145.69;64.47;52282.00;5118664;28;20204;-81
2023/11/07 00:49:34;;;;;;;1.37;0.77;;;;;;;-145.69;63.89;52293.88;5120157;28;20210;-82
2023/11/07 00:52:02;;;;;;;0.60;0.60;;;;;;;-145.69;63.69;52297.84;5124689;28;20198;-82
2023/11/07 00:54:29;;;;;;;1.63;0.73;;;;;;;-145.69;64.64;52276.06;5120895;28;20193;-82
2023/11/07 00:56:55;;;;;;;1.63;0.90;;;;;;;-145.69;64.45;52285.97;5124899;28;20248;-82
2023/11/07 00:59:24;;;;;;;2.50;0.60;;;;;;;-145.69;65.21;52319.63;5133764;28;20284;-81
2023/11/07 01:01:54;;;;;;;0.83;0.60;;;;;;;-145.69;63.91;52289.91;5133085;28;20198;-82
2023/11/07 01:04:21;;;;;;;1.10;0.50;;;;;;;-145.69;65.11;52299.81;5124172;28;20721;-82
2023/11/07 01:06:47;;;;;;;1.80;0.60;;;;;;;-145.69;64.56;52305.75;5114260;28;20600;-82
2023/11/07 01:09:16;;;;;;;2.93;0.63;;;;;;;-145.69;64.61;52276.06;5114083;28;20198;-82
2023/11/07 01:11:43;;;;;;;1.20;0.80;;;;;;;-145.69;65.02;52274.06;5113991;28;20221;-82
2023/11/07 01:14:09;;;;;;;1.93;0.70;;;;;;;-145.69;65.40;52321.59;5113825;28;20205;-82
2023/11/07 01:16:36;;;;;;;0.60;0.60;;;;;;;-145.69;64.66;52317.66;5113821;28;20193;-82
2023/11/07 01:19:03;;;;;;;1.48;0.60;;;;;;;-145.69;65.18;52301.81;5115694;28;20449;-81
2023/11/07 01:21:30;;;;;;;0.70;0.60;;;;;;;-145.69;64.58;52315.66;5120465;28;20320;-81
2023/11/07 01:23:56;;;;;;;2.20;0.80;;;;;;;-145.69;64.08;52315.66;5124644;28;20221;-81
2023/11/07 01:26:26;;;;;;;0.97;0.60;;;;;;;-145.69;65.27;52315.66;5117574;28;20200;-82
2023/11/07 01:28:53;;;;;;;1.63;0.80;;;;;;;-145.69;64.63;52317.66;5113620;28;20292;-82
2023/11/07 01:31:22;;;;;;;3.57;0.67;;;;;;;-145.69;65.23;52297.84;5113791;28;20216;-83
2023/11/07 01:33:48;;;;;;;2.77;0.60;;;;;;;-145.69;65.69;52315.66;5113818;28;20629;-82
2023/11/07 01:36:15;;;;;;;2.00;0.60;;;;;;;-145.69;65.71;52329.53;5109707;28;20205;-82
2023/11/07 01:38:41;;;;;;;1.57;0.90;;;;;;;-145.69;64.69;52309.72;5113846;28;20632;-82
2023/11/07 01:41:08;;;;;;;4.03;0.77;;;;;;;-145.69;65.12;52295.84;5112622;28;20754;-82
2023/11/07 01:43:36;;;;;;;5.93;0.70;;;;;;;-145.69;64.92;52297.84;5113642;28;20205;-82
2023/11/07 01:46:06;;;;;;;4.20;0.70;;;;;;;-145.69;65.51;52293.88;5113851;28;20201;-82
2023/11/07 01:48:33;;;;;;;2.63;0.70;;;;;;;-145.69;66.20;52325.56;5113584;28;20198;-82
2023/11/07 01:51:00;;;;;;;0.93;0.70;;;;;;;-145.69;65.51;52295.84;5093213;28;20607;-81
2023/11/07 01:53:29;;;;;;;2.23;0.80;;;;;;;-145.69;66.90;52315.66;5108976;28;20687;-82
2023/11/07 01:55:57;;;;;;;1.20;0.70;;;;;;;-145.69;65.47;52315.66;5113492;28;20193;-82
2023/11/07 01:58:27;;;;;;;0.70;0.70;;;;;;;-145.69;66.55;52301.81;5114644;28;20197;-81
2023/11/07 02:00:58;;;;;;;5.60;0.83;;;;;;;-145.69;65.96;52297.84;5114801;28;20225;-81
2023/11/07 02:03:25;;;;;;;0.60;0.60;;;;;;;-145.69;65.26;52309.72;5114321;28;20206;-82
2023/11/07 02:05:52;;;;;;;3.40;1.00;;;;;;;-145.69;65.90;52347.34;5114510;28;20236;-82
2023/11/07 02:08:22;;;;;;;1.17;0.60;;;;;;;-145.69;65.03;52309.72;5113947;28;20197;-81
2023/11/07 02:10:53;;;;;;;1.97;0.70;;;;;;;-145.69;65.09;52325.56;5112522;28;20200;-82
2023/11/07 02:13:23;;;;;;;0.60;0.60;;;;;;;-145.69;65.51;52295.84;5113377;28;20205;-81
2023/11/07 02:15:50;;;;;;;3.23;0.83;;;;;;;-145.69;65.87;52305.75;5112938;28;20291;-82
2023/11/07 02:18:19;;;;;;;1.70;0.77;;;;;;;-145.69;65.61;52293.88;5113176;28;20205;-82
2023/11/07 02:20:47;;;;;;;3.43;0.77;;;;;;;-145.69;67.10;52299.81;5112414;28;20248;-81
2023/11/07 02:23:33;;;;;;;3.20;0.77;;;;;;;-145.69;65.81;52327.53;5113322;28;20721;-81
2023/11/07 02:25:59;;;;;;;3.63;0.87;;;;;;;-145.69;66.23;52299.81;5115511;28;20225;-82
2023/11/07 02:28:26;;;;;;;1.60;0.90;;;;;;;-145.69;66.26;52313.69;5114727;28;20586;-82
2023/11/07 02:30:53;;;;;;;3.23;0.80;;;;;;;-145.69;65.60;52299.81;5113003;28;20200;-82
2023/11/07 02:33:20;;;;;;;1.60;0.60;;;;;;;-145.69;65.83;52319.63;5113334;28;20208;-82
2023/11/07 02:35:47;;;;;;;0.83;0.70;;;;;;;-145.69;67.18;52301.81;5114431;28;20205;-82
2023/11/07 02:38:13;;;;;;;3.80;0.70;;;;;;;-145.69;67.33;52293.88;5115204;28;20219;-82
2023/11/07 02:40:45;;;;;;;0.60;0.60;;;;;;;-145.69;67.72;52287.94;5117876;28;20229;-82
2023/11/07 02:43:11;;;;;;;0.60;0.60;;;;;;;-145.69;66.89;52285.97;5118171;28;20254;-82
2023/11/07 02:45:38;;;;;;;0.70;0.70;;;;;;;-145.69;66.72;52333.47;5119496;28;20236;-81
2023/11/07 02:48:05;;;;;;;4.73;0.83;;;;;;;-145.69;66.65;52329.53;5118696;28;20197;-82
2023/11/07 02:50:32;;;;;;;1.13;0.67;;;;;;;-145.69;66.19;52287.94;5119278;28;20250;-81
2023/11/07 02:53:01;;;;;;;1.60;0.70;;;;;;;-145.69;65.89;52333.47;5124177;28;20201;-82
2023/11/07 02:55:28;;;;;;;1.07;0.70;;;;;;;-145.69;65.78;52274.06;5120548;28;20208;-82
2023/11/07 02:57:58;;;;;;;5.93;0.73;;;;;;;-145.69;65.23;52293.88;5117190;28;20204;-82
2023/11/07 03:00:27;;;;;;;2.00;0.77;;;;;;;-145.69;65.08;52293.88;5123861;28;20244;-82
2023/11/07 03:02:54;;;;;;;0.50;0.50;;;;;;;-145.69;65.47;52278.03;5127171;28;20186;-82
2023/11/07 03:05:20;;;;;;;0.80;0.80;;;;;;;-145.69;66.06;52321.59;5117752;28;20189;-81
2023/11/07 03:07:47;;;;;;;1.63;0.80;;;;;;;-145.69;66.22;52309.72;5115291;28;20239;-81
2023/11/07 03:10:16;;;;;;;1.10;0.67;;;;;;;-145.69;66.39;52297.84;5117821;28;20197;-81
2023/11/07 03:12:47;;;;;;;1.93;0.80;;;;;;;-145.69;65.98;52285.97;5116585;28;20201;-81
2023/11/07 03:15:17;;;;;;;6.27;0.83;;;;;;;-145.69;66.15;52307.75;5115828;28;20216;-81
2023/11/07 03:17:43;;;;;;;1.80;0.87;;;;;;;-145.69;65.81;52317.66;5116403;28;20552;-81
2023/11/07 03:20:11;;;;;;;0.70;0.70;;;;;;;-145.69;65.38;52293.88;5116418;28;20232;-81
2023/11/07 03:22:38;;;;;;;1.40;0.80;;;;;;;-145.69;65.06;52307.75;5116193;28;20193;-81
2023/11/07 03:25:05;;;;;;;1.20;0.80;;;;;;;-145.69;65.24;52329.53;5115661;28;20701;-81
2023/11/07 03:27:36;;;;;;;0.70;0.70;;;;;;;-145.69;66.45;52313.69;5115911;28;20206;-82
2023/11/07 03:30:06;;;;;;;1.80;0.90;;;;;;;-145.69;67.00;52289.91;5115947;28;20201;-82
2023/11/07 03:32:40;;;;;;;0.80;0.80;;;;;;;-145.69;66.57;52313.69;5116299;28;20283;-81
2023/11/07 03:35:08;;;;;;;1.27;0.70;;;;;;;-145.69;66.40;52293.88;5114109;28;22146;-81
2023/11/07 03:37:35;;;;;;;2.83;0.93;;;;;;;-145.69;66.83;52297.84;5115874;28;20194;-82
2023/11/07 03:40:05;;;;;;;0.70;0.70;;;;;;;-145.69;66.06;52325.56;5115537;28;20204;-82
2023/11/07 03:42:35;;;;;;;2.70;0.90;;;;;;;-145.69;65.69;52315.66;5115407;28;20198;-81
2023/11/07 03:45:09;;;;;;;2.13;0.90;;;;;;;-145.69;66.04;52270.13;5115774;28;20208;-81
2023/11/07 03:47:40;;;;;;;2.27;0.97;;;;;;;-145.69;66.09;52309.72;5115274;28;20193;-82
2023/11/07 03:50:08;;;;;;;1.03;0.80;;;;;;;-145.69;65.69;52329.53;5121433;28;20223;-82
2023/11/07 03:52:40;;;;;;;1.73;0.80;;;;;;;-145.69;65.73;52297.84;5119070;28;20201;-82
2023/11/07 03:55:16;;;;;;;1.40;0.80;;;;;;;-145.69;66.74;52297.84;5116425;28;20201;-82
2023/11/07 03:57:49;;;;;;;1.20;0.80;;;;;;;-145.69;66.57;52303.78;5116347;28;20201;-81
2023/11/07 04:00:16;;;;;;;1.43;0.80;;;;;;;-145.69;66.46;52313.69;5115643;28;20586;-82
2023/11/07 04:02:44;;;;;;;3.67;0.77;;;;;;;-145.69;66.78;52329.53;5114382;28;20288;-81
2023/11/07 04:05:11;;;;;;;1.10;0.70;;;;;;;-145.69;66.48;52303.78;5114305;28;20194;-82
2023/11/07 04:07:37;;;;;;;2.23;0.70;;;;;;;-145.69;66.29;52282.00;5115204;28;20204;-81
2023/11/07 04:10:05;;;;;;;1.03;0.80;;;;;;;-145.69;66.34;52325.56;5115073;28;20205;-81
2023/11/07 04:12:32;;;;;;;2.10;0.97;;;;;;;-145.69;65.88;52329.53;5114962;28;20201;-82
2023/11/07 04:15:01;;;;;;;0.97;0.70;;;;;;;-145.69;66.18;52280.00;5115156;28;20197;-81
2023/11/07 04:17:28;;;;;;;1.77;0.80;;;;;;;-145.69;65.73;52331.50;5114621;28;20289;-81
2023/11/07 04:19:55;;;;;;;0.60;0.60;;;;;;;-145.69;65.76;52299.81;5114903;28;20200;-82
2023/11/07 04:22:24;;;;;;;2.97;0.87;;;;;;;-145.69;65.41;52266.16;5115148;28;20222;-82
2023/11/07 04:24:51;;;;;;;5.03;0.93;;;;;;;-145.69;65.09;52307.75;5114650;28;20205;-81
2023/11/07 04:27:20;;;;;;;1.13;0.80;;;;;;;-145.69;65.28;52333.47;5115350;28;20288;-82
2023/11/07 04:29:46;;;;;;;2.23;1.00;;;;;;;-145.69;65.18;52309.72;5114889;28;20533;-81
2023/11/07 04:32:14;;;;;;;0.93;0.90;;;;;;;-145.69;65.42;52307.75;5114661;28;20723;-81
2023/11/07 04:34:43;;;;;;;5.87;1.10;;;;;;;-145.69;66.52;52309.72;5114666;28;20200;-81
2023/11/07 04:37:12;;;;;;;2.67;1.20;;;;;;;-145.69;65.63;52333.47;5114743;28;20201;-81
2023/11/07 04:39:38;;;;;;;1.53;0.97;;;;;;;-145.69;66.50;52301.81;5115731;27;20701;-81
2023/11/07 04:42:07;;;;;;;0.63;0.63;;;;;;;-145.69;66.48;52274.06;5115630;28;20229;-81
2023/11/07 04:44:33;;;;;;;1.27;0.80;;;;;;;-145.69;66.01;52331.50;5115301;28;20244;-81
2023/11/07 04:47:02;;;;;;;2.17;0.70;;;;;;;-145.69;65.93;52345.38;5115304;28;20644;-81
2023/11/07 04:49:31;;;;;;;2.97;0.90;;;;;;;-145.69;66.46;52313.69;5115420;28;20280;-81
2023/11/07 04:51:58;;;;;;;4.70;1.00;;;;;;;-145.69;66.29;52335.47;5114823;28;20284;-80
2023/11/07 04:54:26;;;;;;;1.50;0.93;;;;;;;-145.69;65.85;52313.69;5119047;28;20270;-81
2023/11/07 04:56:54;;;;;;;3.53;0.87;;;;;;;-145.69;65.85;52321.59;5120561;28;20596;-81
2023/11/07 04:59:22;;;;;;;15.23;2.27;;;;;;;-145.69;66.07;52349.31;5114814;28;20230;-81
2023/11/07 05:01:49;;;;;;;3.03;1.10;;;;;;;-145.69;66.65;52325.56;5116271;28;20221;-81
2023/11/07 05:04:15;;;;;;;2.73;0.80;;;;;;;-145.69;66.34;52323.59;5118895;28;20205;-81
2023/11/07 05:06:42;;;;;;;3.53;1.37;;;;;;;-145.69;66.50;52327.53;5125674;28;20660;-81
2023/11/07 05:09:12;;;;;;;3.47;1.17;;;;;;;-145.69;67.15;52319.63;5124492;28;20300;-82
2023/11/07 05:11:40;;;;;;;2.53;1.10;;;;;;;-145.69;66.08;52317.66;5118571;28;20197;-81
2023/11/07 05:14:07;;;;;;;3.10;1.00;;;;;;;-145.69;66.26;52311.69;5118112;28;20572;-82
2023/11/07 05:16:36;;;;;;;5.97;1.10;;;;;;;-145.69;66.18;52341.41;5118357;28;20618;-82
2023/11/07 05:19:02;;;;;;;1.50;1.00;;;;;;;-145.69;65.91;52337.44;5118316;28;20236;-81
2023/11/07 05:21:29;;;;;;;2.33;1.07;;;;;;;-145.69;66.01;52315.66;5119526;28;20579;-82
2023/11/07 05:23:56;;;;;;;1.07;0.80;;;;;;;-145.69;66.31;52321.59;5119729;28;20257;-82
2023/11/07 05:26:23;;;;;;;2.57;1.20;;;;;;;-145.69;67.03;52349.31;5120683;28;20223;-82
2023/11/07 05:28:53;;;;;;;3.83;1.20;;;;;;;-145.69;67.10;52315.66;5120987;28;20194;-82
2023/11/07 05:31:20;;;;;;;1.03;0.90;;;;;;;-145.69;66.83;52301.81;5120007;28;20288;-82
2023/11/07 05:33:47;;;;;;;1.23;0.90;;;;;;;-145.69;66.92;52301.81;5120132;28;20197;-82
2023/11/07 05:36:15;;;;;;;0.80;0.80;;;;;;;-145.69;67.35;52293.88;5119775;28;20201;-82
2023/11/07 05:38:45;;;;;;;3.63;1.10;;;;;;;-145.69;66.91;52329.53;5120099;28;20224;-82
2023/11/07 05:41:16;;;;;;;3.40;1.00;;;;;;;-145.69;66.98;52301.81;5121181;28;20256;-82
2023/11/07 05:43:43;;;;;;;1.33;1.00;;;;;;;-145.69;66.85;52321.59;5118658;28;20209;-82
2023/11/07 05:46:11;;;;;;;4.60;1.30;;;;;;;-145.69;67.41;52343.38;5114270;28;20803;-82
2023/11/07 05:48:38;;;;;;;3.57;1.50;;;;;;;-145.69;67.15;52317.66;5113927;28;20649;-82
2023/11/07 05:51:05;;;;;;;1.67;1.23;;;;;;;-145.69;67.25;52313.69;5113248;28;20204;-82
2023/11/07 05:53:31;;;;;;;1.40;0.97;;;;;;;-145.69;67.67;52341.41;5113616;28;20216;-82
2023/11/07 05:55:58;;;;;;;1.07;0.97;;;;;;;-145.69;67.53;52301.81;5113196;28;20197;-82
2023/11/07 05:58:24;;;;;;;5.07;1.63;;;;;;;-145.69;67.12;52321.59;5113365;28;20197;-82
2023/11/07 06:00:51;;;;;;;4.53;1.33;;;;;;;-145.69;66.98;52313.69;5113294;28;20197;-82
2023/11/07 06:03:19;;;;;;;3.20;1.83;;;;;;;-145.69;67.00;52299.81;5113485;28;20205;-82
2023/11/07 06:05:47;;;;;;;3.53;1.13;;;;;;;-145.69;67.18;52309.72;5113622;28;20252;-82
2023/11/07 06:08:14;;;;;;;2.63;1.10;;;;;;;-145.69;66.76;52329.53;5113187;28;20201;-82
2023/11/07 06:10:40;;;;;;;2.13;1.27;;;;;;;-145.69;66.43;52321.59;5113407;28;20204;-82
2023/11/07 06:13:07;;;;;;;2.53;1.40;;;;;;;-145.69;66.37;52317.66;5113348;28;20200;-83
2023/11/07 06:15:37;;;;;;;2.67;1.10;;;;;;;-145.69;66.23;52335.47;5113801;28;20205;-81
2023/11/07 06:18:04;;;;;;;1.73;1.00;;;;;;;-145.69;66.40;52335.47;5114152;28;20197;-82
2023/11/07 06:20:34;;;;;;;2.90;0.87;;;;;;;-145.69;66.71;52282.00;5112666;28;20199;-81
2023/11/07 06:23:01;;;;;;;1.07;0.90;;;;;;;-145.69;66.69;52305.75;5118384;28;20225;-82
2023/11/07 06:25:29;;;;;;;3.33;1.00;;;;;;;-145.69;66.75;52321.59;5117432;28;20197;-82
2023/11/07 06:27:58;;;;;;;3.43;1.30;;;;;;;-145.69;66.53;52329.53;5118530;28;20643;-82
2023/11/07 06:30:29;;;;;;;1.47;1.10;;;;;;;-145.69;66.59;52285.97;5117474;28;20197;-82
2023/11/07 06:32:56;;;;;;;2.33;1.10;;;;;;;-145.69;65.97;52313.69;5117131;28;20644;-82
2023/11/07 06:35:25;;;;;;;4.87;1.13;;;;;;;-145.69;66.08;52285.97;5116988;28;20209;-82
2023/11/07 06:37:53;;;;;;;1.20;0.93;;;;;;;-145.69;65.59;52305.75;5117019;28;20197;-82
2023/11/07 06:40:21;;;;;;;3.20;1.03;;;;;;;-145.69;65.20;52301.81;5117163;28;20193;-82
2023/11/07 06:42:48;;;;;;;1.57;1.07;;;;;;;-145.69;65.04;52305.75;5116516;28;20251;-83
2023/11/07 06:45:15;;;;;;;1.43;1.03;;;;;;;-145.69;65.81;52305.75;5116853;27;20232;-82
2023/11/07 06:47:47;;;;;;;1.23;1.00;;;;;;;-145.69;64.98;52299.81;5116761;28;20609;-82
2023/11/07 06:50:16;;;;;;;1.53;0.90;;;;;;;-145.69;65.58;52325.56;5116782;28;20201;-82
2023/11/07 06:52:48;;;;;;;3.43;1.10;;;;;;;-145.69;65.56;52345.38;5116903;28;20204;-82
2023/11/07 06:55:19;;;;;;;2.47;1.13;;;;;;;-145.69;65.50;52297.84;5116689;28;20217;-82
2023/11/07 06:57:48;;;;;;;4.70;0.97;;;;;;;-145.69;65.39;52293.88;5117178;28;20228;-81
2023/11/07 07:00:21;;;;;;;1.40;1.10;;;;;;;-145.69;65.88;52321.59;5117084;28;20229;-82
2023/11/07 07:02:49;;;;;;;3.83;1.30;;;;;;;-145.69;65.31;52274.06;5116148;28;20684;-82
2023/11/07 07:05:16;;;;;;;1.27;1.10;;;;;;;-145.69;64.89;52297.84;5116512;28;20229;-82
2023/11/07 07:07:46;;;;;;;3.40;1.20;;;;;;;-145.69;65.29;52333.47;5116936;28;20201;-82
2023/11/07 07:10:17;;;;;;;1.07;1.00;;;;;;;-145.69;65.06;52309.72;5117250;28;20212;-82
2023/11/07 07:12:48;;;;;;;1.47;1.00;;;;;;;-145.69;65.46;52266.16;5117675;28;20201;-82
2023/11/07 07:15:14;;;;;;;1.97;0.90;;;;;;;-145.69;64.71;52331.50;5119221;28;20292;-82
2023/11/07 07:17:41;;;;;;;1.70;1.00;;;;;;;-145.69;65.02;52297.84;5119697;28;20212;-82
2023/11/07 07:20:12;;;;;;;2.57;0.90;;;;;;;-145.69;63.06;52285.97;5117924;28;20548;-82
2023/11/07 07:22:41;;;;;;;0.83;0.83;;;;;;;-145.69;62.25;52274.06;5119378;28;20221;-82
2023/11/07 07:25:12;;;;;;;1.23;1.00;;;;;;;-145.69;61.82;52321.59;5119148;28;20208;-82
2023/11/07 07:27:44;;;;;;;7.83;1.40;;;;;;;-145.69;62.29;52295.84;5120811;28;20246;-82
2023/11/07 07:30:20;;;;;;;1.43;1.10;;;;;;;-145.69;61.46;52283.97;5118224;28;20665;-82
2023/11/07 07:32:47;;;;;;;1.33;1.00;;;;;;;-145.69;61.52;52291.91;5116000;28;20207;-82
2023/11/07 07:35:15;;;;;;;2.67;1.00;;;;;;;-145.69;61.82;52270.13;5115968;28;20209;-82
2023/11/07 07:37:42;;;;;;;1.37;1.00;;;;;;;-145.69;59.89;52282.00;5116081;28;20604;-82
2023/11/07 07:40:14;;;;;;;1.27;0.93;;;;;;;-145.69;60.01;52246.34;5115717;28;20208;-82
2023/11/07 07:42:43;;;;;;;2.63;0.73;;;;;;;-145.69;60.61;52274.06;5120260;28;20225;-82
2023/11/07 07:45:12;;;;;;;1.40;0.80;;;;;;;-145.69;59.64;52276.06;5119363;28;20710;-82
2023/11/07 07:47:41;;;;;;;2.83;0.70;;;;;;;-145.69;57.86;52254.28;5109501;27;20247;-82
2023/11/07 07:50:10;;;;;;;2.30;0.70;;;;;;;-145.69;57.06;52258.22;5109724;28;20660;-82
2023/11/07 07:52:38;;;;;;;0.70;0.70;;;;;;;-145.69;57.05;52283.97;5118024;28;20194;-81
2023/11/07 07:55:08;;;;;;;1.13;0.70;;;;;;;-145.69;56.91;52250.31;5118465;28;20586;-82
2023/11/07 07:57:37;;;;;;;0.97;0.80;;;;;;;-145.69;56.20;52262.19;5117675;28;20275;-81
2023/11/07 08:00:11;;;;;;;1.73;0.80;;;;;;;-145.69;56.72;52285.97;5118126;28;20254;-81
2023/11/07 08:02:40;;;;;;;0.60;0.60;;;;;;;-145.69;56.80;52260.22;5117259;28;20222;-81
2023/11/07 08:05:07;;;;;;;1.30;0.83;;;;;;;-145.69;55.74;52278.03;5118596;28;20193;-81
2023/11/07 08:07:35;;;;;;;26.77;14.53;;;;;;;-145.69;55.77;52282.00;5116256;28;20201;-81
2023/11/07 08:10:01;;;;;;;3.97;2.80;;;;;;;-145.69;55.62;52258.22;5114320;28;20288;-79
2023/11/07 08:12:28;;;;;;;6.40;4.43;;;;;;;-145.69;55.34;52238.44;5114864;28;20215;-79
2023/11/07 08:14:56;;;;;;;5.23;1.23;;;;;;;-145.69;54.89;52254.28;5114786;28;20666;-80
2023/11/07 08:17:25;;;;;;;4.23;1.40;;;;;;;-145.69;54.88;52274.06;5114884;28;20193;-79
2023/11/07 08:19:53;;;;;;;1.00;1.00;;;;;;;-145.69;55.22;52254.28;5114347;28;20641;-79
2023/11/07 08:22:22;;;;;;;2.93;0.97;;;;;;;-145.69;55.17;52248.34;5114873;28;20337;-78
2023/11/07 08:24:58;;;;;;;1.70;0.63;;;;;;;-145.69;54.62;52218.63;5094213;28;20198;-79
2023/11/07 08:27:25;;;;;;;1.40;0.90;;;;;;;-145.69;54.97;52246.34;5094327;28;20218;-78
2023/11/07 08:29:52;;;;;;;0.73;0.60;;;;;;;-145.69;54.74;52276.06;5108570;28;20197;-78
2023/11/07 08:32:22;;;;;;;1.97;0.80;;;;;;;-145.69;55.04;52222.59;5114414;28;20197;-78
2023/11/07 08:34:49;;;;;;;0.73;0.70;;;;;;;-145.69;53.88;52232.50;5114648;27;20197;-79
2023/11/07 08:37:17;;;;;;;1.87;0.83;;;;;;;-145.69;52.72;52276.06;5114720;28;20606;-79
2023/11/07 08:39:49;;;;;;;1.47;0.97;;;;;;;-145.69;52.17;52206.75;5114286;28;20555;-79
2023/11/07 08:42:15;;;;;;;3.00;0.80;;;;;;;-145.69;52.09;52262.19;5114132;28;20232;-79
2023/11/07 08:44:44;;;;;;;0.77;0.60;;;;;;;-145.69;51.97;52218.63;5114474;28;20233;-79
2023/11/07 08:47:10;;;;;;;1.03;0.73;;;;;;;-145.69;50.29;52232.50;5114475;28;20235;-79
2023/11/07 08:49:37;;;;;;;3.13;0.90;;;;;;;-145.69;50.64;52222.59;5113250;28;20186;-79
2023/11/07 08:52:04;;;;;;;1.70;0.70;;;;;;;-145.69;51.10;52238.44;5114018;28;20694;-79
2023/11/07 08:54:34;;;;;;;1.13;0.70;;;;;;;-145.69;51.58;52226.53;5113910;28;20576;-80
2023/11/07 08:57:01;;;;;;;2.23;0.80;;;;;;;-145.69;51.78;52258.22;5114607;28;20201;-79
2023/11/07 08:59:27;;;;;;;1.23;0.90;;;;;;;-145.69;50.69;52234.47;5114193;28;20197;-79
2023/11/07 09:01:57;;;;;;;1.37;0.90;;;;;;;-145.69;51.22;52250.31;5113226;28;20197;-80
2023/11/07 09:04:23;;;;;;;3.20;0.80;;;;;;;-145.69;50.97;52220.59;5113969;28;20560;-79
2023/11/07 09:06:50;;;;;;;3.27;0.87;;;;;;;-145.69;51.96;52238.44;5113213;28;20716;-79
2023/11/07 09:09:17;;;;;;;16.77;7.80;;;;;;;-145.69;51.34;52206.75;5113815;28;20197;-79
2023/11/07 09:11:47;;;;;;;7.13;3.20;;;;;;;-145.69;51.39;52248.34;5113307;28;20201;-79
2023/11/07 09:14:14;;;;;;;2.95;0.70;;;;;;;-145.69;50.82;52252.28;5113477;28;20431;-79
2023/11/07 09:16:42;;;;;;;1.57;0.80;;;;;;;-145.69;50.73;52238.44;5113921;28;20198;-79
2023/11/07 09:19:10;;;;;;;0.80;0.80;;;;;;;-145.69;50.43;52224.56;5113488;28;20276;-80
2023/11/07 09:21:38;;;;;;;1.43;0.80;;;;;;;-145.69;49.84;52210.72;5112766;28;20196;-80
2023/11/07 09:24:05;;;;;;;0.73;0.70;;;;;;;-145.69;49.66;52218.63;5113289;28;20229;-79
2023/11/07 09:26:32;;;;;;;1.90;0.60;;;;;;;-145.69;48.44;52222.59;5113153;28;20190;-79
2023/11/07 09:29:00;;;;;;;0.80;0.80;;;;;;;-145.69;47.63;52218.63;5113510;28;20193;-79
2023/11/07 09:31:28;;;;;;;1.77;0.60;;;;;;;-145.69;48.26;52192.88;5113770;28;20208;-79
2023/11/07 09:33:59;;;;;;;1.17;1.07;;;;;;;-145.69;47.04;52169.13;5113414;28;20220;-79
2023/11/07 09:36:26;;;;;;;0.73;0.73;;;;;;;-145.69;47.04;52171.09;5113400;28;20595;-79
2023/11/07 09:38:52;;;;;;;2.20;0.45;;;;;;;-145.69;47.71;52220.59;5112612;28;20197;-79
2023/11/07 09:41:19;;;;;;;0.70;0.50;;;;;;;-145.69;47.55;52220.59;5113148;28;20652;-79
2023/11/07 09:43:46;;;;;;;0.85;0.80;;;;;;;-145.69;47.93;52216.66;5099925;28;20749;-79
2023/11/07 09:46:20;;;;;;;1.30;0.60;;;;;;;-145.69;47.63;52226.53;5092089;28;20259;-79
2023/11/07 09:48:47;;;;;;;0.70;0.47;;;;;;;-145.69;47.45;52198.81;5092884;28;20673;-78
2023/11/07 09:51:14;;;;;;;0.52;0.52;;;;;;;-145.69;46.20;52234.47;5112562;28;20266;-79
2023/11/07 09:53:47;;;;;;;0.70;0.57;;;;;;;-145.69;45.39;52198.81;5112901;28;20540;-79
2023/11/07 09:56:14;;;;;;;1.92;0.80;;;;;;;-145.69;45.70;52182.97;5112881;28;20197;-79
2023/11/07 09:58:47;;;;;;;1.67;0.93;;;;;;;-145.69;44.44;52175.06;5113455;28;20667;-79
2023/11/07 10:01:15;;;;;;;0.80;0.80;;;;;;;-145.69;45.44;52192.88;5114010;28;20211;-80
2023/11/07 10:03:44;;;;;;;1.45;0.88;;;;;;;-145.69;46.05;52175.06;5117516;28;20227;-79
2023/11/07 10:06:12;;;;;;;0.90;0.70;;;;;;;-145.69;45.81;52179.03;5117497;28;20225;-79
2023/11/07 10:08:38;;;;;;;0.57;0.43;;;;;;;-145.69;45.28;52190.91;5117615;28;20193;-79
2023/11/07 10:11:08;;;;;;;0.50;0.50;;;;;;;-145.69;44.99;52210.72;5117099;28;20731;-79
2023/11/07 10:13:35;;;;;;;1.13;0.55;;;;;;;-145.69;45.39;52179.03;5117351;28;20197;-79
2023/11/07 10:16:06;;;;;;;2.05;0.50;;;;;;;-145.69;44.81;52169.13;5117189;28;20675;-79
2023/11/07 10:18:46;;;;;;;1.67;0.63;;;;;;;-145.69;45.37;52198.81;5117452;28;20583;-79
2023/11/07 10:21:13;;;;;;;2.72;0.60;;;;;;;-145.69;45.62;52202.78;5116222;28;20193;-79
2023/11/07 10:23:40;;;;;;;1.95;0.50;;;;;;;-145.69;46.49;52198.81;5116564;28;20229;-79
2023/11/07 10:26:12;;;;;;;0.52;0.50;;;;;;;-145.69;46.38;52151.28;5116998;28;20698;-79
2023/11/07 10:28:39;;;;;;;1.27;0.67;;;;;;;-145.69;47.10;52206.75;5117038;28;20202;-79
2023/11/07 10:31:24;;;;;;;1.33;0.47;;;;;;;-145.69;45.62;52190.91;5117097;28;20567;-79
2023/11/07 10:33:52;;;;;;;0.90;0.82;;;;;;;-145.69;46.13;52210.72;5117147;28;20549;-78
2023/11/07 10:36:22;;;;;;;1.15;0.82;;;;;;;-145.69;46.38;52188.91;5116913;28;20198;-79
2023/11/07 10:38:49;;;;;;;1.67;0.73;;;;;;;-145.69;45.02;52204.75;5116929;28;20201;-79
2023/11/07 10:41:28;;;;;;;3.50;1.40;;;;;;;-145.69;45.08;52184.97;5116727;28;20204;-79
2023/11/07 10:43:54;;;;;;;1.50;0.95;;;;;;;-145.69;45.50;52190.91;5116663;28;20258;-79
2023/11/07 10:46:21;;;;;;;3.80;2.28;;;;;;;-145.69;45.98;52179.03;5116559;28;20225;-79
2023/11/07 10:48:49;;;;;;;1.40;0.80;;;;;;;-145.69;45.31;52171.09;5116445;28;20605;-79
2023/11/07 10:51:17;;;;;;;1.33;0.70;;;;;;;-145.69;45.06;52167.13;5116680;28;20201;-78
2023/11/07 10:53:44;;;;;;;1.60;0.80;;;;;;;-145.69;45.63;52169.13;5116617;28;20750;-79
2023/11/07 10:56:13;;;;;;;1.00;0.55;;;;;;;-145.69;44.27;52173.09;5116693;28;20201;-79
2023/11/07 10:58:43;;;;;;;0.52;0.50;;;;;;;-145.69;43.78;52188.91;5116599;28;20205;-79
2023/11/07 11:01:19;;;;;;;1.50;0.90;;;;;;;-145.69;45.52;52171.09;5116768;28;20201;-79
2023/11/07 11:03:49;;;;;;;1.20;0.77;;;;;;;-145.69;44.16;52192.88;5115812;28;20217;-79
2023/11/07 11:06:23;;;;;;;1.17;0.68;;;;;;;-145.69;43.91;52167.13;5115965;28;20236;-79
2023/11/07 11:08:51;;;;;;;0.60;0.60;;;;;;;-145.69;43.15;52179.03;5116576;28;20220;-80
2023/11/07 11:11:19;;;;;;;2.03;0.52;;;;;;;-145.69;43.81;52175.06;5116148;28;20189;-79
2023/11/07 11:13:51;;;;;;;0.50;0.50;;;;;;;-145.69;43.74;52123.56;5115795;28;20229;-79
2023/11/07 11:16:20;;;;;;;0.70;0.70;;;;;;;-145.69;42.23;52151.28;5116178;28;20204;-79
2023/11/07 11:18:53;;;;;;;2.58;0.52;;;;;;;-145.69;41.37;52175.06;5116041;28;20204;-79
2023/11/07 11:21:28;;;;;;;0.85;0.50;;;;;;;-145.69;41.53;52157.25;5109801;28;20201;-79